Time;durP1;ratioP1;P1;durP2;ratioP2;P2;SDS_P1;SDS_P2;PMS_P1;PMS_P2;Temp;Humidity;BMP_temperature;BMP_pressure;BME280_temperature;BME280_humidity;BME280_pressure;Samples;Min_cycle;Max_cycle;Signal;HPM_P1;HPM_P2
2022/07/23 00:02:03;;;;;;;2.07;1.60;;;25.40;51.70;;;;;;5037439;28;20997;-80
2022/07/23 00:04:31;;;;;;;1.37;1.20;;;25.40;51.50;;;;;;5036116;28;20993;-79
2022/07/23 00:06:59;;;;;;;1.93;1.30;;;25.40;51.30;;;;;;5045027;28;20557;-79
2022/07/23 00:09:30;;;;;;;1.53;1.20;;;25.40;51.30;;;;;;5057911;28;20994;-79
2022/07/23 00:11:58;;;;;;;1.40;1.30;;;25.40;51.30;;;;;;5061705;28;20541;-79
2022/07/23 00:14:26;;;;;;;1.60;1.50;;;25.40;51.20;;;;;;5054160;28;20481;-79
2022/07/23 00:16:54;;;;;;;1.90;1.33;;;25.40;51.10;;;;;;5052261;28;20445;-79
2022/07/23 00:19:22;;;;;;;2.00;1.40;;;25.40;51.00;;;;;;5053188;28;20467;-79
2022/07/23 00:21:49;;;;;;;2.67;1.40;;;25.40;51.00;;;;;;5054666;28;20439;-79
2022/07/23 00:24:17;;;;;;;1.20;1.10;;;25.40;50.90;;;;;;5036946;28;20471;-78
2022/07/23 00:26:46;;;;;;;10.33;1.60;;;25.50;50.80;;;;;;5035574;28;20530;-80
2022/07/23 00:29:14;;;;;;;1.90;1.10;;;25.40;50.80;;;;;;5036282;28;20441;-80
2022/07/23 00:31:42;;;;;;;1.50;1.40;;;25.40;50.70;;;;;;5036535;28;20562;-80
2022/07/23 00:34:14;;;;;;;1.50;1.20;;;25.50;50.90;;;;;;5036054;28;20817;-80
2022/07/23 00:36:42;;;;;;;1.57;1.33;;;25.50;50.70;;;;;;5036234;28;20436;-79
2022/07/23 00:39:10;;;;;;;1.47;1.10;;;25.50;50.60;;;;;;5037805;28;20527;-80
2022/07/23 00:41:38;;;;;;;1.73;1.00;;;25.50;50.70;;;;;;5056481;28;20455;-80
2022/07/23 00:44:17;;;;;;;1.20;1.10;;;25.50;50.60;;;;;;5057185;28;20493;-79
2022/07/23 00:46:49;;;;;;;1.37;1.27;;;25.40;50.60;;;;;;5054956;28;20531;-78
2022/07/23 00:49:17;;;;;;;2.23;1.40;;;25.40;50.60;;;;;;5060105;28;20502;-80
2022/07/23 00:51:44;;;;;;;1.93;1.13;;;25.40;50.60;;;;;;5060541;28;20537;-80
2022/07/23 00:54:12;;;;;;;3.23;1.27;;;25.40;50.50;;;;;;5060341;28;20557;-80
2022/07/23 00:56:40;;;;;;;1.10;1.10;;;25.40;50.50;;;;;;5059204;28;20512;-80
2022/07/23 00:59:08;;;;;;;1.97;1.50;;;25.40;50.50;;;;;;5060164;28;20467;-80
2022/07/23 01:01:37;;;;;;;1.53;1.23;;;25.40;50.40;;;;;;5058739;28;20517;-79
2022/07/23 01:04:06;;;;;;;1.63;1.30;;;25.50;50.60;;;;;;5060033;28;20466;-80
2022/07/23 01:06:35;;;;;;;1.10;1.00;;;25.40;50.50;;;;;;5059244;28;20500;-80
2022/07/23 01:09:03;;;;;;;2.10;1.20;;;25.50;50.50;;;;;;5060049;28;20453;-81
2022/07/23 01:11:32;;;;;;;1.10;1.10;;;25.50;50.50;;;;;;5060066;28;20479;-81
2022/07/23 01:14:00;;;;;;;2.03;1.40;;;25.50;50.60;;;;;;5058695;28;20481;-81
2022/07/23 01:16:28;;;;;;;1.63;1.30;;;25.40;50.40;;;;;;5059607;28;20478;-81
2022/07/23 01:18:57;;;;;;;1.80;1.10;;;25.40;50.60;;;;;;5060856;28;20473;-80
2022/07/23 01:21:26;;;;;;;1.47;1.20;;;25.40;50.40;;;;;;5060354;28;20474;-80
2022/07/23 01:23:55;;;;;;;1.40;1.30;;;25.40;50.50;;;;;;5059720;28;20479;-81
2022/07/23 01:26:23;;;;;;;1.27;1.17;;;25.40;50.50;;;;;;5059338;28;20413;-80
2022/07/23 01:28:50;;;;;;;1.43;1.20;;;25.40;50.60;;;;;;5059414;28;20432;-80
2022/07/23 01:31:19;;;;;;;3.90;1.17;;;25.40;50.40;;;;;;5060088;28;20543;-81
2022/07/23 01:33:46;;;;;;;1.47;1.37;;;25.40;50.40;;;;;;5058238;28;20459;-81
2022/07/23 01:36:14;;;;;;;1.20;1.10;;;25.30;50.50;;;;;;5059413;28;20489;-79
2022/07/23 01:38:42;;;;;;;1.97;1.10;;;25.40;50.60;;;;;;5059618;28;20486;-79
2022/07/23 01:41:11;;;;;;;1.73;1.17;;;25.40;50.80;;;;;;5060006;28;20446;-80
2022/07/23 01:43:41;;;;;;;1.50;1.23;;;25.40;50.50;;;;;;5059837;28;20532;-80
2022/07/23 01:46:09;;;;;;;1.60;1.20;;;25.40;50.70;;;;;;5053760;28;20474;-80
2022/07/23 01:48:38;;;;;;;2.80;1.40;;;25.40;50.50;;;;;;5059891;28;20442;-79
2022/07/23 01:51:06;;;;;;;3.00;1.20;;;25.40;50.60;;;;;;5060254;28;20420;-79
2022/07/23 01:53:33;;;;;;;1.73;1.40;;;25.30;50.60;;;;;;5059192;28;20760;-79
2022/07/23 01:56:01;;;;;;;1.93;1.10;;;25.30;50.60;;;;;;5059154;28;20506;-79
2022/07/23 01:58:30;;;;;;;1.53;1.10;;;25.30;50.80;;;;;;5059806;28;20531;-79
2022/07/23 02:00:58;;;;;;;1.37;1.10;;;25.30;50.70;;;;;;5055130;28;20449;-79
2022/07/23 02:03:26;;;;;;;1.80;1.40;;;25.30;50.70;;;;;;5058609;28;20500;-79
2022/07/23 02:05:54;;;;;;;1.30;1.20;;;25.30;50.70;;;;;;5058960;28;20933;-79
2022/07/23 02:08:21;;;;;;;2.10;1.00;;;25.30;50.70;;;;;;5059360;28;20529;-79
2022/07/23 02:10:51;;;;;;;1.30;1.20;;;25.30;50.80;;;;;;5059268;28;20430;-80
2022/07/23 02:13:19;;;;;;;1.40;1.30;;;25.30;50.80;;;;;;5059529;28;20542;-79
2022/07/23 02:15:48;;;;;;;1.07;1.00;;;25.20;50.80;;;;;;5058388;28;20481;-79
2022/07/23 02:18:16;;;;;;;1.63;1.20;;;25.20;50.80;;;;;;5057165;28;20462;-79
2022/07/23 02:20:44;;;;;;;1.43;1.30;;;25.20;51.10;;;;;;5055325;28;20569;-79
2022/07/23 02:23:12;;;;;;;1.50;1.40;;;25.20;50.80;;;;;;5059095;28;20462;-80
2022/07/23 02:25:40;;;;;;;1.30;1.00;;;25.20;50.90;;;;;;5058624;28;20522;-79
2022/07/23 02:28:08;;;;;;;1.13;1.03;;;25.20;51.00;;;;;;5058741;28;20550;-78
2022/07/23 02:30:37;;;;;;;1.47;1.10;;;25.20;50.80;;;;;;5058990;28;20423;-78
2022/07/23 02:33:07;;;;;;;1.37;1.27;;;25.20;51.00;;;;;;5058115;28;20470;-79
2022/07/23 02:35:35;;;;;;;1.33;1.20;;;25.20;51.00;;;;;;5051419;28;20497;-79
2022/07/23 02:38:02;;;;;;;1.43;1.33;;;25.20;50.90;;;;;;5051713;28;20455;-79
2022/07/23 02:40:30;;;;;;;3.33;1.37;;;25.20;51.00;;;;;;5058752;28;20529;-79
2022/07/23 02:42:58;;;;;;;1.30;1.20;;;25.10;50.80;;;;;;5058612;28;20559;-79
2022/07/23 02:45:26;;;;;;;1.13;1.03;;;25.10;51.20;;;;;;5058012;28;20447;-79
2022/07/23 02:47:54;;;;;;;1.40;1.23;;;25.20;51.10;;;;;;5058691;28;20484;-80
2022/07/23 02:50:23;;;;;;;1.77;1.20;;;25.20;51.10;;;;;;5058341;28;20457;-79
2022/07/23 02:52:51;;;;;;;1.43;1.33;;;25.20;51.10;;;;;;5054472;28;20502;-79
2022/07/23 02:55:19;;;;;;;1.20;1.20;;;25.10;50.90;;;;;;5044562;28;20498;-79
2022/07/23 02:57:46;;;;;;;1.47;1.37;;;25.10;51.10;;;;;;5059411;28;20453;-80
2022/07/23 03:00:14;;;;;;;1.30;1.20;;;25.00;51.20;;;;;;5058799;28;20533;-80
2022/07/23 03:02:45;;;;;;;2.57;1.63;;;25.00;51.20;;;;;;5059216;28;20466;-80
2022/07/23 03:05:13;;;;;;;1.27;1.20;;;25.00;51.20;;;;;;5058512;28;20446;-80
2022/07/23 03:07:42;;;;;;;1.20;1.10;;;25.00;51.20;;;;;;5058740;28;20423;-80
2022/07/23 03:10:10;;;;;;;1.43;1.27;;;25.00;51.30;;;;;;5057800;28;20533;-80
2022/07/23 03:12:38;;;;;;;1.23;1.13;;;25.00;51.30;;;;;;5041218;28;20414;-80
2022/07/23 03:15:07;;;;;;;1.30;1.20;;;24.90;51.10;;;;;;5037983;28;20470;-80
2022/07/23 03:17:35;;;;;;;1.77;1.33;;;25.00;51.50;;;;;;5038469;28;20454;-80
2022/07/23 03:20:03;;;;;;;1.37;1.27;;;24.90;51.90;;;;;;5039172;28;20566;-80
2022/07/23 03:22:31;;;;;;;1.30;1.30;;;24.90;51.30;;;;;;5041296;28;20471;-80
2022/07/23 03:25:00;;;;;;;1.53;1.13;;;25.00;51.40;;;;;;5031744;28;20478;-78
2022/07/23 03:27:29;;;;;;;1.37;1.10;;;24.90;51.40;;;;;;5032594;28;20418;-79
2022/07/23 03:29:59;;;;;;;6.77;1.10;;;24.90;51.40;;;;;;5032688;28;20450;-80
2022/07/23 03:32:26;;;;;;;1.50;1.40;;;24.80;51.50;;;;;;5032340;28;20443;-79
2022/07/23 03:34:54;;;;;;;1.10;1.10;;;24.80;51.50;;;;;;5032397;28;20584;-79
2022/07/23 03:37:22;;;;;;;1.43;1.10;;;24.90;51.50;;;;;;5032699;28;20542;-80
2022/07/23 03:39:51;;;;;;;1.30;1.20;;;24.90;51.50;;;;;;5033020;28;20553;-80
2022/07/23 03:42:20;;;;;;;0.97;0.97;;;24.90;51.30;;;;;;5046781;28;20457;-81
2022/07/23 03:44:48;;;;;;;4.23;1.13;;;24.80;51.40;;;;;;5053030;28;20936;-79
2022/07/23 03:47:17;;;;;;;1.30;1.30;;;24.80;51.60;;;;;;5053288;28;20474;-79
2022/07/23 03:49:45;;;;;;;1.73;1.07;;;24.80;51.50;;;;;;5053618;28;20446;-80
2022/07/23 03:52:13;;;;;;;1.47;1.37;;;24.70;51.60;;;;;;5053490;28;20451;-80
2022/07/23 03:54:40;;;;;;;1.30;1.30;;;24.80;51.80;;;;;;5053540;28;20545;-80
2022/07/23 03:57:08;;;;;;;1.10;1.00;;;24.80;51.70;;;;;;5053022;28;20447;-80
2022/07/23 03:59:38;;;;;;;1.57;1.30;;;24.80;51.70;;;;;;5057986;28;20538;-81
2022/07/23 04:02:06;;;;;;;1.40;1.30;;;24.80;51.80;;;;;;5057733;28;20561;-81
2022/07/23 04:04:34;;;;;;;1.40;1.30;;;24.80;51.60;;;;;;5057747;28;20496;-80
2022/07/23 04:07:02;;;;;;;1.33;1.30;;;24.80;51.70;;;;;;5060501;28;20448;-80
2022/07/23 04:09:30;;;;;;;1.33;1.20;;;24.70;51.80;;;;;;5062314;28;20442;-81
2022/07/23 04:11:58;;;;;;;1.20;1.20;;;24.70;51.60;;;;;;5061905;28;20529;-80
2022/07/23 04:14:26;;;;;;;3.17;1.20;;;24.70;51.70;;;;;;5060170;28;20472;-80
2022/07/23 04:16:55;;;;;;;1.40;1.30;;;24.70;51.80;;;;;;5061225;28;20449;-80
2022/07/23 04:19:23;;;;;;;1.20;1.10;;;24.60;51.70;;;;;;5061906;28;20510;-80
2022/07/23 04:21:51;;;;;;;1.20;1.20;;;24.60;51.80;;;;;;5061649;28;20477;-80
2022/07/23 04:24:19;;;;;;;1.30;1.20;;;24.60;51.70;;;;;;5061736;28;20555;-81
2022/07/23 04:26:47;;;;;;;1.70;1.30;;;24.60;51.90;;;;;;5061263;28;20449;-81
2022/07/23 04:29:15;;;;;;;1.43;1.30;;;24.60;51.70;;;;;;5060693;28;20534;-80
2022/07/23 04:31:43;;;;;;;1.30;1.10;;;24.60;51.80;;;;;;5061756;28;20452;-80
2022/07/23 04:34:12;;;;;;;1.40;1.30;;;24.60;51.90;;;;;;5060867;28;20437;-80
2022/07/23 04:36:40;;;;;;;1.50;1.37;;;24.60;51.70;;;;;;5061049;28;20470;-81
2022/07/23 04:39:08;;;;;;;1.57;1.37;;;24.60;52.50;;;;;;5061057;28;20549;-81
2022/07/23 04:41:36;;;;;;;1.17;1.13;;;24.50;52.00;;;;;;5060037;28;20549;-80
2022/07/23 04:44:04;;;;;;;1.40;1.30;;;24.50;51.80;;;;;;5061427;28;20473;-81
2022/07/23 04:46:32;;;;;;;0.90;0.90;;;24.60;51.90;;;;;;5059073;28;20516;-82
2022/07/23 04:49:01;;;;;;;1.30;1.30;;;24.60;52.10;;;;;;5061320;28;20451;-81
2022/07/23 04:51:31;;;;;;;1.10;1.10;;;24.60;51.90;;;;;;5060827;28;20458;-81
2022/07/23 04:53:59;;;;;;;2.17;1.30;;;24.60;51.90;;;;;;5061216;28;20513;-80
2022/07/23 04:56:27;;;;;;;1.20;1.20;;;24.60;51.90;;;;;;5060915;28;20447;-81
2022/07/23 04:58:55;;;;;;;1.77;1.60;;;24.60;51.80;;;;;;5060865;28;20529;-81
2022/07/23 05:01:23;;;;;;;1.70;1.60;;;24.60;51.90;;;;;;5057466;28;20965;-81
2022/07/23 05:03:51;;;;;;;1.20;1.10;;;24.60;51.90;;;;;;5061785;28;20501;-80
2022/07/23 05:06:19;;;;;;;1.30;1.20;;;24.60;52.00;;;;;;5060257;28;20453;-80
2022/07/23 05:08:48;;;;;;;1.60;1.40;;;24.60;52.00;;;;;;5061039;28;20529;-81
2022/07/23 05:11:16;;;;;;;1.20;1.20;;;24.60;51.80;;;;;;5060459;28;20442;-80
2022/07/23 05:13:44;;;;;;;1.30;1.20;;;24.60;51.80;;;;;;5060504;28;20880;-81
2022/07/23 05:16:12;;;;;;;1.03;1.03;;;24.60;51.80;;;;;;5058940;28;20450;-81
2022/07/23 05:18:40;;;;;;;1.53;1.43;;;24.70;51.80;;;;;;5047699;28;20453;-81
2022/07/23 05:21:08;;;;;;;1.07;1.07;;;24.70;51.80;;;;;;5060079;28;20448;-81
2022/07/23 05:23:36;;;;;;;1.30;1.20;;;24.70;51.60;;;;;;5060543;28;20546;-80
2022/07/23 05:26:05;;;;;;;1.20;1.10;;;24.70;51.70;;;;;;5060217;28;20439;-80
2022/07/23 05:28:33;;;;;;;1.40;1.30;;;24.70;51.70;;;;;;5060165;28;20416;-81
2022/07/23 05:31:01;;;;;;;1.53;1.30;;;24.80;51.70;;;;;;5060959;28;20447;-81
2022/07/23 05:33:30;;;;;;;1.20;1.20;;;24.70;51.60;;;;;;5060684;28;20455;-81
2022/07/23 05:36:01;;;;;;;1.37;1.00;;;24.70;51.80;;;;;;5053743;28;20429;-81
2022/07/23 05:38:29;;;;;;;1.20;1.20;;;24.70;51.80;;;;;;5043754;28;20454;-82
2022/07/23 05:40:57;;;;;;;1.17;1.17;;;24.70;51.60;;;;;;5040057;28;20478;-81
2022/07/23 05:43:26;;;;;;;1.17;1.13;;;24.80;51.60;;;;;;5039964;28;20426;-81
2022/07/23 05:45:54;;;;;;;1.90;1.43;;;24.80;51.70;;;;;;5039159;28;20534;-81
2022/07/23 05:48:22;;;;;;;1.13;1.13;;;24.80;51.60;;;;;;5039755;28;20478;-81
2022/07/23 05:50:50;;;;;;;1.23;1.17;;;24.80;51.50;;;;;;5043951;28;20482;-81
2022/07/23 05:53:18;;;;;;;1.40;1.30;;;24.80;51.60;;;;;;5059767;28;20951;-81
2022/07/23 05:55:46;;;;;;;1.93;1.00;;;24.80;51.60;;;;;;5060018;28;20513;-81
2022/07/23 05:58:14;;;;;;;1.20;1.20;;;24.90;51.70;;;;;;5059825;28;20506;-81
2022/07/23 06:00:44;;;;;;;1.20;1.13;;;24.80;51.60;;;;;;5059917;28;20521;-81
2022/07/23 06:03:12;;;;;;;1.30;1.30;;;24.80;51.60;;;;;;5060551;28;20532;-82
2022/07/23 06:05:40;;;;;;;1.33;1.23;;;24.80;51.60;;;;;;5058117;28;20453;-82
2022/07/23 06:08:08;;;;;;;0.97;0.97;;;24.90;51.50;;;;;;5056359;28;20512;-82
2022/07/23 06:10:36;;;;;;;1.20;1.20;;;24.90;51.60;;;;;;5060218;28;20513;-81
2022/07/23 06:13:04;;;;;;;2.23;1.33;;;25.00;51.70;;;;;;5059423;28;20424;-82
2022/07/23 06:15:32;;;;;;;1.40;1.30;;;25.10;51.60;;;;;;5059246;28;20428;-81
2022/07/23 06:18:01;;;;;;;1.33;1.23;;;25.20;51.50;;;;;;5059751;28;20454;-82
2022/07/23 06:20:29;;;;;;;1.27;1.17;;;25.40;51.20;;;;;;5059114;28;20530;-82
2022/07/23 06:22:57;;;;;;;1.10;1.10;;;25.40;51.20;;;;;;5058760;28;20536;-82
2022/07/23 06:25:25;;;;;;;1.53;1.07;;;25.40;51.00;;;;;;5058929;28;20529;-82
2022/07/23 06:27:53;;;;;;;1.50;1.40;;;25.50;51.00;;;;;;5059124;28;20425;-81
2022/07/23 06:30:21;;;;;;;1.50;1.40;;;25.60;50.90;;;;;;5059504;28;20421;-81
2022/07/23 06:32:51;;;;;;;1.40;1.30;;;25.60;50.90;;;;;;5059572;28;20438;-82
2022/07/23 06:35:21;;;;;;;1.20;1.10;;;25.70;50.80;;;;;;5058965;28;20534;-82
2022/07/23 06:37:49;;;;;;;2.20;1.20;;;25.70;50.70;;;;;;5059746;28;20451;-81
2022/07/23 06:40:17;;;;;;;1.20;1.10;;;25.70;50.80;;;;;;5057854;28;20453;-81
2022/07/23 06:42:45;;;;;;;1.10;1.10;;;25.70;50.60;;;;;;5040572;28;20441;-81
2022/07/23 06:45:13;;;;;;;1.67;1.40;;;25.80;50.60;;;;;;5038698;28;20447;-81
2022/07/23 06:47:41;;;;;;;1.10;1.10;;;25.90;50.60;;;;;;5042916;28;20448;-80
2022/07/23 06:50:10;;;;;;;1.10;1.10;;;25.90;50.60;;;;;;5047421;28;20454;-81
2022/07/23 06:52:39;;;;;;;1.40;1.30;;;25.90;50.40;;;;;;5047432;28;20467;-81
2022/07/23 06:55:09;;;;;;;1.67;1.23;;;26.00;50.40;;;;;;5039490;28;20418;-81
2022/07/23 06:57:38;;;;;;;1.20;1.20;;;26.00;50.40;;;;;;5050908;28;20529;-81
2022/07/23 07:00:07;;;;;;;1.20;1.20;;;26.00;50.30;;;;;;5058985;28;20450;-82
2022/07/23 07:02:35;;;;;;;1.10;1.10;;;26.10;50.40;;;;;;5059165;28;20565;-81
2022/07/23 07:05:03;;;;;;;1.30;1.20;;;26.10;50.40;;;;;;5058809;28;20472;-81
2022/07/23 07:07:33;;;;;;;1.73;1.10;;;26.10;50.40;;;;;;5059782;28;20428;-81
2022/07/23 07:10:03;;;;;;;1.00;1.00;;;26.10;50.30;;;;;;5059390;28;20449;-81
2022/07/23 07:12:31;;;;;;;1.13;1.13;;;26.10;50.40;;;;;;5056090;28;20562;-81
2022/07/23 07:14:59;;;;;;;1.10;1.10;;;26.00;50.50;;;;;;5056589;28;20541;-80
2022/07/23 07:17:27;;;;;;;1.40;1.10;;;26.00;50.70;;;;;;5058853;28;20526;-81
2022/07/23 07:19:55;;;;;;;1.30;1.30;;;26.00;50.70;;;;;;5058979;28;20449;-81
2022/07/23 07:22:23;;;;;;;1.43;1.33;;;26.00;50.80;;;;;;5058767;28;20532;-80
2022/07/23 07:24:51;;;;;;;2.40;1.80;;;26.00;50.80;;;;;;5064992;28;20515;-80
2022/07/23 07:27:20;;;;;;;4.03;2.40;;;25.40;51.00;;;;;;5070094;28;20463;-80
2022/07/23 07:29:48;;;;;;;4.60;1.60;;;24.20;54.30;;;;;;5067890;28;20534;-80
2022/07/23 07:32:16;;;;;;;1.77;1.67;;;23.50;55.80;;;;;;5073999;28;20447;-80
2022/07/23 07:35:04;;;;;;;4.30;2.00;;;23.00;57.20;;;;;;5074385;28;20433;-80
2022/07/23 07:37:32;;;;;;;2.47;1.97;;;22.80;57.70;;;;;;5074737;28;20459;-80
2022/07/23 07:40:00;;;;;;;6.20;2.60;;;22.20;58.60;;;;;;5072532;28;20526;-80
2022/07/23 07:42:30;;;;;;;5.70;2.30;;;22.10;58.80;;;;;;5073942;28;20493;-80
2022/07/23 07:44:58;;;;;;;6.57;2.60;;;22.10;59.50;;;;;;5068879;28;20470;-80
2022/07/23 07:47:25;;;;;;;4.07;2.50;;;22.00;60.20;;;;;;5059176;28;20462;-80
2022/07/23 07:49:53;;;;;;;2.97;2.67;;;21.70;61.00;;;;;;5054217;28;20491;-80
2022/07/23 07:52:21;;;;;;;5.03;2.70;;;21.30;61.60;;;;;;5054283;28;20436;-80
2022/07/23 07:54:49;;;;;;;5.37;2.10;;;21.10;63.00;;;;;;5049608;28;20457;-80
2022/07/23 07:57:17;;;;;;;5.67;3.20;;;21.20;63.30;;;;;;5052315;28;20527;-80
2022/07/23 07:59:47;;;;;;;3.83;2.30;;;21.50;63.20;;;;;;5051462;28;20443;-80
2022/07/23 08:02:22;;;;;;;3.80;2.63;;;21.60;63.90;;;;;;5052662;28;20534;-80
2022/07/23 08:04:50;;;;;;;4.10;2.17;;;21.50;61.90;;;;;;5070126;28;20469;-80
2022/07/23 08:07:18;;;;;;;2.07;1.97;;;21.60;64.30;;;;;;5053572;28;20471;-80
2022/07/23 08:09:46;;;;;;;4.10;2.40;;;21.90;62.00;;;;;;5053096;28;20459;-80
2022/07/23 08:12:14;;;;;;;4.97;2.47;;;21.70;62.70;;;;;;5053564;28;20435;-80
2022/07/23 08:14:43;;;;;;;6.47;2.57;;;21.90;61.70;;;;;;5053156;28;20464;-80
2022/07/23 08:17:12;;;;;;;3.10;2.10;;;21.70;61.70;;;;;;5052476;28;20435;-80
2022/07/23 08:19:42;;;;;;;4.93;1.80;;;22.00;62.10;;;;;;5052461;28;20436;-81
2022/07/23 08:22:10;;;;;;;4.43;1.93;;;22.60;60.10;;;;;;5066202;28;20452;-81
2022/07/23 08:24:37;;;;;;;2.13;1.83;;;22.40;59.20;;;;;;5072399;28;20477;-79
2022/07/23 08:27:05;;;;;;;1.73;1.63;;;22.00;60.10;;;;;;5071302;28;20454;-79
2022/07/23 08:29:33;;;;;;;1.70;1.60;;;21.90;60.70;;;;;;5071507;28;20434;-80
2022/07/23 08:32:01;;;;;;;2.17;1.90;;;22.00;60.80;;;;;;5069638;28;20409;-80
2022/07/23 08:34:50;;;;;;;1.90;1.60;;;22.00;62.20;;;;;;5071881;28;20525;-79
2022/07/23 08:37:18;;;;;;;5.80;1.37;;;21.90;61.40;;;;;;5070259;28;20451;-79
2022/07/23 08:39:46;;;;;;;1.40;1.30;;;22.00;60.90;;;;;;5069720;28;20470;-80
2022/07/23 08:42:14;;;;;;;2.60;1.13;;;22.40;59.30;;;;;;5062701;28;20414;-79
2022/07/23 08:44:43;;;;;;;1.37;1.10;;;22.50;57.90;;;;;;5052474;28;20434;-79
2022/07/23 08:47:11;;;;;;;0.90;0.90;;;22.40;56.00;;;;;;5044326;28;20475;-79
2022/07/23 08:49:39;;;;;;;2.40;1.13;;;22.70;56.30;;;;;;5043125;28;20478;-78
2022/07/23 08:52:08;;;;;;;4.83;4.43;;;23.10;56.40;;;;;;5044104;28;20539;-78
2022/07/23 08:54:36;;;;;;;3.17;1.75;;;23.70;55.70;;;;;;5043518;28;20419;-80
2022/07/23 08:57:04;;;;;;;3.00;0.93;;;24.00;55.30;;;;;;5045609;28;20261;-80
2022/07/23 08:59:32;;;;;;;3.57;1.20;;;23.60;54.50;;;;;;5055715;28;20435;-80
2022/07/23 09:02:00;;;;;;;1.10;0.80;;;23.40;55.40;;;;;;5064335;28;20522;-80
2022/07/23 09:04:31;;;;;;;1.47;1.00;;;23.40;54.70;;;;;;5060630;28;20474;-81
2022/07/23 09:06:59;;;;;;;3.43;1.40;;;23.30;53.90;;;;;;5062016;28;20427;-77
2022/07/23 09:09:30;;;;;;;8.70;1.90;;;23.80;56.40;;;;;;5061032;28;20464;-80
2022/07/23 09:12:04;;;;;;;11.83;1.83;;;25.10;55.30;;;;;;5059455;28;20244;-79
2022/07/23 09:14:40;;;;;;;2.97;1.33;;;25.90;52.40;;;;;;5056242;28;20480;-78
2022/07/23 09:17:12;;;;;;;1.30;0.90;;;26.30;51.20;;;;;;5061490;28;20539;-79
2022/07/23 09:19:40;;;;;;;1.03;0.93;;;26.40;49.90;;;;;;5063401;28;20409;-79
2022/07/23 09:22:23;;;;;;;6.33;1.00;;;26.60;49.40;;;;;;5060665;28;20439;-78
2022/07/23 09:25:07;;;;;;;1.40;0.90;;;26.70;48.90;;;;;;5054795;28;20449;-80
2022/07/23 09:27:50;;;;;;;3.23;0.97;;;26.90;48.40;;;;;;5062800;28;20473;-80
2022/07/23 09:30:22;;;;;;;1.40;0.93;;;26.80;48.40;;;;;;5066582;28;20492;-79
2022/07/23 09:33:05;;;;;;;3.00;1.10;;;26.80;46.80;;;;;;5063784;28;20452;-79
2022/07/23 09:35:46;;;;;;;1.67;0.93;;;26.50;48.20;;;;;;5055286;28;20489;-79
2022/07/23 09:38:14;;;;;;;1.43;1.10;;;26.50;48.90;;;;;;5059661;28;20445;-78
2022/07/23 09:40:44;;;;;;;1.43;0.90;;;26.90;47.80;;;;;;5059481;28;20439;-78
2022/07/23 09:43:11;;;;;;;1.40;1.00;;;27.10;46.00;;;;;;5055927;28;20482;-78
2022/07/23 09:45:40;;;;;;;1.37;0.80;;;26.60;46.10;;;;;;5061219;28;20528;-78
2022/07/23 09:48:12;;;;;;;1.27;1.00;;;26.30;47.50;;;;;;5045923;28;20909;-77
2022/07/23 09:50:41;;;;;;;1.20;0.90;;;26.70;47.60;;;;;;5049927;28;20426;-79
2022/07/23 09:53:09;;;;;;;1.53;1.00;;;26.90;46.50;;;;;;5055674;28;20468;-80
2022/07/23 09:55:38;;;;;;;6.63;0.80;;;26.60;46.80;;;;;;5050901;28;20486;-79
2022/07/23 09:58:11;;;;;;;1.30;0.87;;;26.40;49.00;;;;;;5053076;28;20446;-77
2022/07/23 10:00:39;;;;;;;1.00;0.63;;;26.70;46.30;;;;;;5052971;28;20443;-78
2022/07/23 10:03:07;;;;;;;0.70;0.70;;;27.00;46.10;;;;;;5052734;28;20528;-78
2022/07/23 10:05:35;;;;;;;0.70;0.60;;;27.30;44.70;;;;;;5044667;28;20425;-77
2022/07/23 10:08:03;;;;;;;1.17;0.70;;;27.40;44.50;;;;;;5052566;28;20468;-76
2022/07/23 10:10:31;;;;;;;1.47;0.70;;;27.60;43.90;;;;;;5054282;28;20447;-78
2022/07/23 10:15:49;;;;;;;0.87;0.80;;;27.30;44.30;;;;;;5054006;28;20437;-78
2022/07/23 10:18:17;;;;;;;0.60;0.60;;;27.60;43.70;;;;;;5054950;28;20428;-77
2022/07/23 10:20:45;;;;;;;0.90;0.80;;;27.80;43.30;;;;;;5044022;28;20465;-77
2022/07/23 10:23:20;;;;;;;0.63;0.63;;;27.40;43.30;;;;;;5042293;28;20498;-77
2022/07/23 10:36:20;;;;;;;0.90;0.80;;;27.20;44.60;;;;;;5126560;27;20533;-78
2022/07/23 10:38:52;;;;;;;0.73;0.73;;;28.40;41.60;;;;;;5077398;28;20509;-77
2022/07/23 10:41:31;;;;;;;1.00;0.70;;;28.40;40.90;;;;;;5095483;28;20455;-77
2022/07/23 10:44:10;;;;;;;0.60;0.60;;;28.50;41.30;;;;;;5094224;28;20570;-78
2022/07/23 10:49:40;;;;;;;0.90;0.60;;;28.60;40.70;;;;;;5100645;28;20422;-78
2022/07/23 10:52:20;;;;;;;1.53;0.80;;;28.70;40.20;;;;;;5097157;28;20502;-78
2022/07/23 10:54:50;;;;;;;1.47;0.70;;;28.60;40.90;;;;;;5090890;28;20518;-79
2022/07/23 10:57:19;;;;;;;0.80;0.70;;;28.70;40.50;;;;;;5090969;28;20416;-79
2022/07/23 11:00:17;;;;;;;0.80;0.80;;;28.70;39.40;;;;;;5092743;28;20795;-78
2022/07/23 11:02:46;;;;;;;6.63;0.77;;;28.40;40.30;;;;;;5091587;28;20475;-77
2022/07/23 11:05:15;;;;;;;0.90;0.80;;;28.20;40.30;;;;;;5089472;28;20477;-78
2022/07/23 11:08:16;;;;;;;0.83;0.70;;;28.50;41.10;;;;;;5071241;28;20449;-76
2022/07/23 11:10:46;;;;;;;1.90;0.70;;;29.00;40.60;;;;;;5080240;28;20441;-76
2022/07/23 11:13:31;;;;;;;0.60;0.60;;;28.90;39.40;;;;;;5090692;28;20461;-78
2022/07/23 11:16:22;;;;;;;0.57;0.57;;;29.00;40.00;;;;;;5090563;28;20422;-77
2022/07/23 11:19:09;;;;;;;0.80;0.70;;;29.20;38.80;;;;;;5092276;28;20468;-78
2022/07/23 11:21:47;;;;;;;0.93;0.80;;;29.30;38.50;;;;;;5093855;28;20404;-77
2022/07/23 11:24:20;;;;;;;1.23;0.80;;;29.30;39.10;;;;;;5092345;28;20854;-77
2022/07/23 11:27:03;;;;;;;0.77;0.77;;;29.50;39.10;;;;;;5089312;28;20441;-78
2022/07/23 11:29:55;;;;;;;1.00;0.87;;;29.80;38.00;;;;;;5089807;28;20421;-78
2022/07/23 11:32:30;;;;;;;1.10;0.90;;;29.90;38.00;;;;;;5091972;28;20487;-79
2022/07/23 11:34:57;;;;;;;1.10;1.00;;;29.90;37.50;;;;;;5088376;28;20513;-79
2022/07/23 11:37:36;;;;;;;2.30;1.10;;;29.70;37.60;;;;;;5079128;28;20502;-82
2022/07/23 11:40:08;;;;;;;0.90;0.90;;;29.90;38.10;;;;;;5081335;28;20420;-84
2022/07/23 11:42:38;;;;;;;0.97;0.90;;;30.30;37.30;;;;;;5089821;28;20461;-84
2022/07/23 11:45:08;;;;;;;1.43;1.27;;;30.60;36.60;;;;;;5086952;28;20479;-84
2022/07/23 11:47:36;;;;;;;1.40;1.30;;;30.80;35.90;;;;;;5087212;28;20412;-85
2022/07/23 11:50:06;;;;;;;2.60;1.07;;;31.00;34.90;;;;;;5079874;28;20456;-85
2022/07/23 11:52:34;;;;;;;1.53;1.50;;;30.90;34.50;;;;;;5079877;28;20992;-85
2022/07/23 11:55:04;;;;;;;0.80;0.80;;;30.80;34.00;;;;;;5078427;28;20515;-82
2022/07/23 11:57:34;;;;;;;0.90;0.90;;;30.50;34.40;;;;;;5080614;28;20401;-84
2022/07/23 12:00:04;;;;;;;0.80;0.80;;;30.00;34.50;;;;;;5079931;28;20447;-85
2022/07/23 12:02:33;;;;;;;0.93;0.93;;;30.00;35.70;;;;;;5078046;28;20496;-85
2022/07/23 12:05:01;;;;;;;0.73;0.70;;;30.40;35.80;;;;;;5077788;28;20471;-85
2022/07/23 12:07:31;;;;;;;1.20;1.10;;;30.70;34.50;;;;;;5084119;28;20975;-85
2022/07/23 12:10:01;;;;;;;2.10;1.00;;;30.70;34.90;;;;;;5079987;28;20540;-85
2022/07/23 12:12:36;;;;;;;1.30;1.30;;;30.60;34.90;;;;;;5078267;28;20450;-85
2022/07/23 12:15:05;;;;;;;2.37;0.90;;;30.60;34.60;;;;;;5077585;28;20521;-85
2022/07/23 12:17:34;;;;;;;3.30;1.00;;;30.30;34.20;;;;;;5078054;28;20476;-86
2022/07/23 12:20:04;;;;;;;1.47;0.60;;;30.30;34.90;;;;;;5065579;28;20504;-85
2022/07/23 12:22:37;;;;;;;0.90;0.90;;;30.70;35.20;;;;;;5058318;28;20438;-85
2022/07/23 12:25:07;;;;;;;0.60;0.60;;;31.10;35.30;;;;;;5057194;28;20520;-85
2022/07/23 12:27:37;;;;;;;4.93;0.70;;;31.10;34.20;;;;;;5057432;28;20525;-85
2022/07/23 12:30:22;;;;;;;1.00;0.80;;;31.20;34.30;;;;;;5057872;28;20447;-85
2022/07/23 12:32:51;;;;;;;0.83;0.83;;;31.40;33.40;;;;;;5059638;28;20502;-85
2022/07/23 12:35:19;;;;;;;1.20;1.10;;;31.30;33.30;;;;;;5068684;28;20472;-86
2022/07/23 12:37:47;;;;;;;0.70;0.70;;;31.10;33.30;;;;;;5065102;28;20401;-86
2022/07/23 12:40:26;;;;;;;0.97;0.60;;;31.10;33.80;;;;;;5056418;28;20534;-86
2022/07/23 12:42:56;;;;;;;0.77;0.77;;;31.40;33.60;;;;;;5056087;28;20439;-85
2022/07/23 12:45:24;;;;;;;0.80;0.80;;;31.50;33.30;;;;;;5053870;28;20582;-85
2022/07/23 12:48:01;;;;;;;0.60;0.60;;;31.50;32.80;;;;;;5055739;28;20445;-84
2022/07/23 12:50:51;;;;;;;1.00;0.70;;;31.30;33.00;;;;;;5071136;28;20441;-84
2022/07/23 12:53:20;;;;;;;1.87;1.00;;;31.20;33.50;;;;;;5069043;28;20526;-84
2022/07/23 12:55:51;;;;;;;1.63;1.50;;;31.40;33.80;;;;;;5072825;28;20434;-84
2022/07/23 12:58:45;;;;;;;1.30;0.90;;;31.40;33.30;;;;;;5074244;28;20432;-85
2022/07/23 13:01:25;;;;;;;3.27;1.07;;;31.40;33.40;;;;;;5074657;28;20817;-84
2022/07/23 13:03:59;;;;;;;0.90;0.90;;;31.70;34.10;;;;;;5076182;28;20449;-84
2022/07/23 13:06:27;;;;;;;5.17;1.10;;;32.10;33.80;;;;;;5072476;28;20466;-85
2022/07/23 13:08:56;;;;;;;1.20;1.00;;;32.30;34.40;;;;;;5073227;28;20444;-85
2022/07/23 13:11:24;;;;;;;1.00;0.90;;;32.60;33.90;;;;;;5064915;28;20514;-85
2022/07/23 13:13:53;;;;;;;1.17;0.73;;;32.70;33.30;;;;;;5074592;28;20549;-84
2022/07/23 13:16:22;;;;;;;2.10;0.90;;;32.50;32.50;;;;;;5072800;28;20448;-85
2022/07/23 13:18:50;;;;;;;1.27;1.17;;;32.30;32.70;;;;;;5074404;28;20445;-85